sensor_id;sensor_type;location;lat;lon;timestamp;pressure;altitude;pressure_sealevel;temperature;humidity
67818;BME280;54614;47.576;7.524;2024-01-30T00:02:12;99935.22;;;22.52;37.28
67818;BME280;54614;47.576;7.524;2024-01-30T00:04:38;99934.56;;;22.50;37.26
67818;BME280;54614;47.576;7.524;2024-01-30T00:07:04;99936.56;;;22.48;37.54
67818;BME280;54614;47.576;7.524;2024-01-30T00:09:30;99939.91;;;22.50;37.18
67818;BME280;54614;47.576;7.524;2024-01-30T00:11:56;99940.25;;;22.47;37.04
67818;BME280;54614;47.576;7.524;2024-01-30T00:14:22;99935.88;;;22.46;37.51
67818;BME280;54614;47.576;7.524;2024-01-30T00:16:48;99940.25;;;22.47;37.26
67818;BME280;54614;47.576;7.524;2024-01-30T00:19:14;99938.72;;;22.45;37.27
67818;BME280;54614;47.576;7.524;2024-01-30T00:21:40;99940.41;;;22.46;37.01
67818;BME280;54614;47.576;7.524;2024-01-30T00:24:06;99935.06;;;22.46;37.22
67818;BME280;54614;47.576;7.524;2024-01-30T00:26:32;99935.06;;;22.46;37.35
67818;BME280;54614;47.576;7.524;2024-01-30T00:28:58;99939.91;;;22.42;37.21
67818;BME280;54614;47.576;7.524;2024-01-30T00:31:24;99938.22;;;22.41;37.01
67818;BME280;54614;47.576;7.524;2024-01-30T00:33:50;99941.91;;;22.40;37.25
67818;BME280;54614;47.576;7.524;2024-01-30T00:36:16;99940.06;;;22.41;37.01
67818;BME280;54614;47.576;7.524;2024-01-30T00:38:41;99938.22;;;22.41;37.13
67818;BME280;54614;47.576;7.524;2024-01-30T00:41:11;99942.59;;;22.42;36.99
67818;BME280;54614;47.576;7.524;2024-01-30T00:43:37;99935.53;;;22.41;37.11
67818;BME280;54614;47.576;7.524;2024-01-30T00:46:03;99935.53;;;22.41;37.25
67818;BME280;54614;47.576;7.524;2024-01-30T00:48:29;99931.34;;;22.39;37.16
67818;BME280;54614;47.576;7.524;2024-01-30T00:50:54;99941.91;;;22.40;37.18
67818;BME280;54614;47.576;7.524;2024-01-30T00:53:20;99933.19;;;22.38;36.75
67818;BME280;54614;47.576;7.524;2024-01-30T00:55:46;99942.06;;;22.39;37.14
67818;BME280;54614;47.576;7.524;2024-01-30T00:58:12;99944.09;;;22.37;37.16
67818;BME280;54614;47.576;7.524;2024-01-30T01:00:38;99945.75;;;22.38;37.12
67818;BME280;54614;47.576;7.524;2024-01-30T01:03:04;99944.09;;;22.37;36.96
67818;BME280;54614;47.576;7.524;2024-01-30T01:05:30;99946.09;;;22.35;37.16
67818;BME280;54614;47.576;7.524;2024-01-30T01:07:56;99942.41;;;22.36;37.14
67818;BME280;54614;47.576;7.524;2024-01-30T01:10:22;99948.78;;;22.35;37.14
67818;BME280;54614;47.576;7.524;2024-01-30T01:12:48;99953.97;;;22.36;37.05
67818;BME280;54614;47.576;7.524;2024-01-30T01:15:14;99944.41;;;22.34;37.20
67818;BME280;54614;47.576;7.524;2024-01-30T01:17:40;99946.41;;;22.32;36.85
67818;BME280;54614;47.576;7.524;2024-01-30T01:20:07;99958.81;;;22.33;37.17
67818;BME280;54614;47.576;7.524;2024-01-30T01:22:34;99947.25;;;22.32;36.67
67818;BME280;54614;47.576;7.524;2024-01-30T01:25:00;99945.75;;;22.30;37.12
67818;BME280;54614;47.576;7.524;2024-01-30T01:27:26;99944.56;;;22.32;37.16
67818;BME280;54614;47.576;7.524;2024-01-30T01:29:53;99947.25;;;22.32;36.91
67818;BME280;54614;47.576;7.524;2024-01-30T01:32:19;99941.88;;;22.32;36.85
67818;BME280;54614;47.576;7.524;2024-01-30T01:34:44;99939.53;;;22.29;36.98
67818;BME280;54614;47.576;7.524;2024-01-30T01:37:10;99938.53;;;22.30;36.74
67818;BME280;54614;47.576;7.524;2024-01-30T01:39:36;99937.69;;;22.30;36.77
67818;BME280;54614;47.576;7.524;2024-01-30T01:42:02;99936.84;;;22.29;37.04
67818;BME280;54614;47.576;7.524;2024-01-30T01:44:28;99931.66;;;22.28;36.85
67818;BME280;54614;47.576;7.524;2024-01-30T01:46:55;99938.03;;;22.27;36.78
67818;BME280;54614;47.576;7.524;2024-01-30T01:49:27;99934.50;;;22.26;36.90
67818;BME280;54614;47.576;7.524;2024-01-30T01:51:56;99927.63;;;22.24;36.73
67818;BME280;54614;47.576;7.524;2024-01-30T01:54:25;99936.50;;;22.24;36.95
67818;BME280;54614;47.576;7.524;2024-01-30T01:56:53;99931.81;;;22.26;36.86
67818;BME280;54614;47.576;7.524;2024-01-30T01:59:20;99930.31;;;22.24;36.90
67818;BME280;54614;47.576;7.524;2024-01-30T02:01:48;99933.84;;;22.24;36.86
67818;BME280;54614;47.576;7.524;2024-01-30T02:04:16;99937.69;;;22.22;36.89
67818;BME280;54614;47.576;7.524;2024-01-30T02:06:43;99938.69;;;22.21;37.12
67818;BME280;54614;47.576;7.524;2024-01-30T02:09:09;99945.03;;;22.19;36.91
67818;BME280;54614;47.576;7.524;2024-01-30T02:11:35;99933.16;;;22.22;37.00
67818;BME280;54614;47.576;7.524;2024-01-30T02:14:05;99931.47;;;22.21;36.67
67818;BME280;54614;47.576;7.524;2024-01-30T02:16:31;99935.31;;;22.18;37.03
67818;BME280;54614;47.576;7.524;2024-01-30T02:18:57;99930.63;;;22.21;36.97
67818;BME280;54614;47.576;7.524;2024-01-30T02:21:24;99939.53;;;22.21;37.00
67818;BME280;54614;47.576;7.524;2024-01-30T02:23:52;99936.84;;;22.21;36.79
67818;BME280;54614;47.576;7.524;2024-01-30T02:26:18;99936.16;;;22.19;36.96
67818;BME280;54614;47.576;7.524;2024-01-30T02:28:43;99939.84;;;22.18;36.84
67818;BME280;54614;47.576;7.524;2024-01-30T02:31:09;99942.53;;;22.18;36.79
67818;BME280;54614;47.576;7.524;2024-01-30T02:33:35;99932.97;;;22.15;37.14
67818;BME280;54614;47.576;7.524;2024-01-30T02:36:01;99938.34;;;22.15;37.03
67818;BME280;54614;47.576;7.524;2024-01-30T02:38:27;99936.66;;;22.14;37.06
67818;BME280;54614;47.576;7.524;2024-01-30T02:40:53;99939.50;;;22.13;36.69
67818;BME280;54614;47.576;7.524;2024-01-30T02:43:19;99932.47;;;22.12;36.89
67818;BME280;54614;47.576;7.524;2024-01-30T02:45:45;99932.47;;;22.12;36.79
67818;BME280;54614;47.576;7.524;2024-01-30T02:48:10;99935.97;;;22.12;36.66
67818;BME280;54614;47.576;7.524;2024-01-30T02:50:36;99928.25;;;22.09;36.79
67818;BME280;54614;47.576;7.524;2024-01-30T02:53:02;99930.94;;;22.09;36.97
67818;BME280;54614;47.576;7.524;2024-01-30T02:55:28;99928.25;;;22.09;36.80
67818;BME280;54614;47.576;7.524;2024-01-30T02:57:53;99923.91;;;22.08;36.77
67818;BME280;54614;47.576;7.524;2024-01-30T03:00:20;99927.44;;;22.09;36.82
67818;BME280;54614;47.576;7.524;2024-01-30T03:02:46;99931.28;;;22.06;36.91
67818;BME280;54614;47.576;7.524;2024-01-30T03:05:12;99934.63;;;22.08;36.75
67818;BME280;54614;47.576;7.524;2024-01-30T03:07:38;99934.63;;;22.08;36.88
67818;BME280;54614;47.576;7.524;2024-01-30T03:10:06;99937.63;;;22.05;36.75
67818;BME280;54614;47.576;7.524;2024-01-30T03:12:33;99938.47;;;22.06;36.82
67818;BME280;54614;47.576;7.524;2024-01-30T03:14:58;99932.44;;;22.04;37.00
67818;BME280;54614;47.576;7.524;2024-01-30T03:17:24;99935.13;;;22.04;36.91
67818;BME280;54614;47.576;7.524;2024-01-30T03:19:50;99934.94;;;22.05;36.65
67818;BME280;54614;47.576;7.524;2024-01-30T03:22:17;99939.47;;;22.05;36.70
67818;BME280;54614;47.576;7.524;2024-01-30T03:24:43;99940.63;;;22.02;36.69
67818;BME280;54614;47.576;7.524;2024-01-30T03:27:09;99946.00;;;22.02;36.92
67818;BME280;54614;47.576;7.524;2024-01-30T03:29:35;99946.00;;;22.02;37.01
67818;BME280;54614;47.576;7.524;2024-01-30T03:32:01;99937.09;;;22.02;36.93
67818;BME280;54614;47.576;7.524;2024-01-30T03:34:27;99945.13;;;22.02;36.73
67818;BME280;54614;47.576;7.524;2024-01-30T03:36:52;99946.00;;;22.02;36.66
67818;BME280;54614;47.576;7.524;2024-01-30T03:39:18;99950.47;;;22.02;36.84
67818;BME280;54614;47.576;7.524;2024-01-30T03:41:44;99945.13;;;22.02;36.57
67818;BME280;54614;47.576;7.524;2024-01-30T03:44:11;99948.97;;;21.99;37.04
67818;BME280;54614;47.576;7.524;2024-01-30T03:46:37;99945.44;;;21.99;36.82
67818;BME280;54614;47.576;7.524;2024-01-30T03:49:02;99950.81;;;21.99;36.77
67818;BME280;54614;47.576;7.524;2024-01-30T03:51:28;99947.28;;;21.98;36.61
67818;BME280;54614;47.576;7.524;2024-01-30T03:53:54;99959.00;;;21.97;37.00
67818;BME280;54614;47.576;7.524;2024-01-30T03:56:20;99952.47;;;22.00;36.87
67818;BME280;54614;47.576;7.524;2024-01-30T03:58:46;99956.16;;;21.99;36.93
67818;BME280;54614;47.576;7.524;2024-01-30T04:01:15;99959.00;;;21.97;36.56
67818;BME280;54614;47.576;7.524;2024-01-30T04:03:41;99956.66;;;21.94;36.88
67818;BME280;54614;47.576;7.524;2024-01-30T04:06:08;99955.81;;;21.94;36.86
67818;BME280;54614;47.576;7.524;2024-01-30T04:08:34;99959.50;;;21.93;36.70
67818;BME280;54614;47.576;7.524;2024-01-30T04:11:06;99953.28;;;21.92;36.80
67818;BME280;54614;47.576;7.524;2024-01-30T04:13:33;99962.16;;;21.93;36.68
67818;BME280;54614;47.576;7.524;2024-01-30T04:16:00;99956.13;;;21.91;36.97
67818;BME280;54614;47.576;7.524;2024-01-30T04:18:29;99957.28;;;21.88;36.90
67818;BME280;54614;47.576;7.524;2024-01-30T04:20:55;99956.28;;;21.89;36.72
67818;BME280;54614;47.576;7.524;2024-01-30T04:23:21;99949.94;;;21.90;36.73
67818;BME280;54614;47.576;7.524;2024-01-30T04:25:47;99958.97;;;21.89;36.93
67818;BME280;54614;47.576;7.524;2024-01-30T04:28:12;99957.97;;;21.90;36.73
67818;BME280;54614;47.576;7.524;2024-01-30T04:30:38;99956.81;;;21.93;36.69
67818;BME280;54614;47.576;7.524;2024-01-30T04:33:04;99949.25;;;21.88;36.82
67818;BME280;54614;47.576;7.524;2024-01-30T04:35:30;99941.91;;;21.90;36.86
67818;BME280;54614;47.576;7.524;2024-01-30T04:37:56;99960.66;;;21.90;36.60
67818;BME280;54614;47.576;7.524;2024-01-30T04:40:22;99959.81;;;21.90;36.65
67818;BME280;54614;47.576;7.524;2024-01-30T04:42:48;99958.97;;;21.89;36.59
67818;BME280;54614;47.576;7.524;2024-01-30T04:45:14;99960.97;;;21.87;36.50
67818;BME280;54614;47.576;7.524;2024-01-30T04:47:40;99973.38;;;21.88;36.85
67818;BME280;54614;47.576;7.524;2024-01-30T04:50:09;99969.84;;;21.87;36.65
67818;BME280;54614;47.576;7.524;2024-01-30T04:52:35;99970.69;;;21.88;36.72
67818;BME280;54614;47.576;7.524;2024-01-30T04:55:01;99975.19;;;21.87;36.53
67818;BME280;54614;47.576;7.524;2024-01-30T04:57:27;99972.03;;;21.92;36.64
67818;BME280;54614;47.576;7.524;2024-01-30T04:59:53;99966.53;;;21.94;37.22
67818;BME280;54614;47.576;7.524;2024-01-30T05:02:19;99963.84;;;21.94;36.97
67818;BME280;54614;47.576;7.524;2024-01-30T05:04:45;99972.25;;;21.99;36.90
67818;BME280;54614;47.576;7.524;2024-01-30T05:07:11;99969.63;;;22.07;36.58
67818;BME280;54614;47.576;7.524;2024-01-30T05:09:37;99966.94;;;22.07;37.13
67818;BME280;54614;47.576;7.524;2024-01-30T05:12:03;99970.47;;;22.07;37.14
67818;BME280;54614;47.576;7.524;2024-01-30T05:14:28;99977.69;;;22.15;36.96
67818;BME280;54614;47.576;7.524;2024-01-30T05:16:54;99974.53;;;22.19;38.48
67818;BME280;54614;47.576;7.524;2024-01-30T05:19:20;99973.34;;;22.14;37.17
67818;BME280;54614;47.576;7.524;2024-01-30T05:21:48;99978.88;;;22.21;36.94
67818;BME280;54614;47.576;7.524;2024-01-30T05:24:14;99976.88;;;22.23;36.57
67818;BME280;54614;47.576;7.524;2024-01-30T05:26:40;99983.09;;;22.23;36.63
67818;BME280;54614;47.576;7.524;2024-01-30T05:29:07;99976.22;;;22.29;36.40
67818;BME280;54614;47.576;7.524;2024-01-30T05:31:34;99984.09;;;22.30;36.66
67818;BME280;54614;47.576;7.524;2024-01-30T05:34:00;99983.47;;;22.36;36.53
67818;BME280;54614;47.576;7.524;2024-01-30T05:36:26;99986.47;;;22.33;36.36
67818;BME280;54614;47.576;7.524;2024-01-30T05:38:51;99983.97;;;22.40;36.14
67818;BME280;54614;47.576;7.524;2024-01-30T05:41:17;99979.59;;;22.39;38.63
67818;BME280;54614;47.576;7.524;2024-01-30T05:43:43;99976.94;;;22.39;36.51
67818;BME280;54614;47.576;7.524;2024-01-30T05:46:09;99976.94;;;22.47;36.39
67818;BME280;54614;47.576;7.524;2024-01-30T05:48:35;99978.78;;;22.46;36.65
67818;BME280;54614;47.576;7.524;2024-01-30T05:51:02;99981.66;;;22.53;36.41
67818;BME280;54614;47.576;7.524;2024-01-30T05:53:29;99982.50;;;22.54;36.35
67818;BME280;54614;47.576;7.524;2024-01-30T05:55:55;99988.53;;;22.56;36.87
67818;BME280;54614;47.576;7.524;2024-01-30T05:58:21;99991.03;;;22.57;37.30
67818;BME280;54614;47.576;7.524;2024-01-30T06:00:47;99997.09;;;22.59;37.00
67818;BME280;54614;47.576;7.524;2024-01-30T06:03:13;99996.06;;;22.60;36.96
67818;BME280;54614;47.576;7.524;2024-01-30T06:05:39;99996.41;;;22.57;38.28
67818;BME280;54614;47.576;7.524;2024-01-30T06:08:05;99990.88;;;22.59;37.63
67818;BME280;54614;47.576;7.524;2024-01-30T06:10:31;100000.09;;;22.64;36.57
67818;BME280;54614;47.576;7.524;2024-01-30T06:12:56;100002.63;;;22.66;36.83
67818;BME280;54614;47.576;7.524;2024-01-30T06:15:22;99991.91;;;22.66;36.78
67818;BME280;54614;47.576;7.524;2024-01-30T06:17:48;99995.75;;;22.71;36.73
67818;BME280;54614;47.576;7.524;2024-01-30T06:20:14;99991.41;;;22.70;36.69
67818;BME280;54614;47.576;7.524;2024-01-30T06:22:39;100004.81;;;22.70;36.71
67818;BME280;54614;47.576;7.524;2024-01-30T06:25:06;100001.47;;;22.76;41.80
67818;BME280;54614;47.576;7.524;2024-01-30T06:27:31;100008.69;;;22.76;44.10
67818;BME280;54614;47.576;7.524;2024-01-30T06:29:57;100000.47;;;22.77;43.57
67818;BME280;54614;47.576;7.524;2024-01-30T06:32:23;100000.47;;;22.77;43.10
67818;BME280;54614;47.576;7.524;2024-01-30T06:34:49;99998.78;;;22.76;42.37
67818;BME280;54614;47.576;7.524;2024-01-30T06:37:14;99992.78;;;22.82;41.59
67818;BME280;54614;47.576;7.524;2024-01-30T06:39:40;100013.09;;;22.85;41.56
67818;BME280;54614;47.576;7.524;2024-01-30T06:42:06;100006.72;;;22.86;41.33
67818;BME280;54614;47.576;7.524;2024-01-30T06:44:31;100002.69;;;22.90;41.09
67818;BME280;54614;47.576;7.524;2024-01-30T06:46:57;100004.03;;;22.86;40.96
67818;BME280;54614;47.576;7.524;2024-01-30T06:49:23;100005.88;;;22.86;41.25
67818;BME280;54614;47.576;7.524;2024-01-30T06:51:48;100004.38;;;22.83;41.24
67818;BME280;54614;47.576;7.524;2024-01-30T06:54:14;100008.34;;;22.79;40.73
67818;BME280;54614;47.576;7.524;2024-01-30T06:56:40;100011.75;;;22.81;39.83
67818;BME280;54614;47.576;7.524;2024-01-30T06:59:06;100011.41;;;22.84;39.78
67818;BME280;54614;47.576;7.524;2024-01-30T07:01:32;100007.38;;;22.88;39.05
67818;BME280;54614;47.576;7.524;2024-01-30T07:03:58;100017.94;;;22.90;39.16
67818;BME280;54614;47.576;7.524;2024-01-30T07:06:24;100024.16;;;22.90;39.28
67818;BME280;54614;47.576;7.524;2024-01-30T07:08:50;100022.31;;;22.91;39.05
67818;BME280;54614;47.576;7.524;2024-01-30T07:11:20;100022.81;;;22.94;38.60
67818;BME280;54614;47.576;7.524;2024-01-30T07:13:48;100024.50;;;22.95;38.34
67818;BME280;54614;47.576;7.524;2024-01-30T07:16:15;100018.47;;;23.01;38.21
67818;BME280;54614;47.576;7.524;2024-01-30T07:18:41;100026.84;;;22.98;38.21
67818;BME280;54614;47.576;7.524;2024-01-30T07:21:07;100028.53;;;22.99;38.03
67818;BME280;54614;47.576;7.524;2024-01-30T07:23:33;100034.56;;;23.01;38.10
67818;BME280;54614;47.576;7.524;2024-01-30T07:26:01;100027.19;;;23.03;37.68
67818;BME280;54614;47.576;7.524;2024-01-30T07:28:27;100033.56;;;23.02;37.64
67818;BME280;54614;47.576;7.524;2024-01-30T07:30:52;100032.72;;;23.02;37.37
67818;BME280;54614;47.576;7.524;2024-01-30T07:33:18;100040.44;;;23.05;37.41
67818;BME280;54614;47.576;7.524;2024-01-30T07:35:45;100048.16;;;23.08;37.29
67818;BME280;54614;47.576;7.524;2024-01-30T07:38:11;100040.09;;;23.08;37.04
67818;BME280;54614;47.576;7.524;2024-01-30T07:40:37;100044.81;;;23.06;37.32
67818;BME280;54614;47.576;7.524;2024-01-30T07:43:03;100050.34;;;23.04;37.10
67818;BME280;54614;47.576;7.524;2024-01-30T07:45:29;100043.13;;;23.05;37.07
67818;BME280;54614;47.576;7.524;2024-01-30T07:47:58;100053.53;;;23.08;37.22
67818;BME280;54614;47.576;7.524;2024-01-30T07:50:26;100055.38;;;23.07;37.13
67818;BME280;54614;47.576;7.524;2024-01-30T07:52:51;100057.38;;;23.05;37.14
67818;BME280;54614;47.576;7.524;2024-01-30T07:55:59;100058.56;;;23.03;36.97
67818;BME280;54614;47.576;7.524;2024-01-30T07:58:25;100065.59;;;23.04;36.99
67818;BME280;54614;47.576;7.524;2024-01-30T08:00:53;100066.59;;;22.95;36.98
67818;BME280;54614;47.576;7.524;2024-01-30T08:03:19;100062.72;;;22.89;37.38
67818;BME280;54614;47.576;7.524;2024-01-30T08:05:44;100069.94;;;22.89;37.27
67818;BME280;54614;47.576;7.524;2024-01-30T08:08:10;100077.13;;;22.80;37.26
67818;BME280;54614;47.576;7.524;2024-01-30T08:10:36;100067.25;;;22.80;37.16
67818;BME280;54614;47.576;7.524;2024-01-30T08:13:02;100065.69;;;22.78;37.32
67818;BME280;54614;47.576;7.524;2024-01-30T08:15:28;100062.72;;;22.81;36.83
67818;BME280;54614;47.576;7.524;2024-01-30T08:17:53;100050.97;;;22.82;nan
67818;BME280;54614;47.576;7.524;2024-01-30T08:20:24;100057.34;;;22.81;37.01
67818;BME280;54614;47.576;7.524;2024-01-30T08:22:50;100056.63;;;22.79;36.77
67818;BME280;54614;47.576;7.524;2024-01-30T08:25:16;100054.97;;;22.78;36.98
67818;BME280;54614;47.576;7.524;2024-01-30T08:27:42;100056.81;;;22.77;36.98
67818;BME280;54614;47.576;7.524;2024-01-30T08:30:08;100056.13;;;22.75;36.79
67818;BME280;54614;47.576;7.524;2024-01-30T08:32:34;100050.75;;;22.75;36.58
67818;BME280;54614;47.576;7.524;2024-01-30T08:35:00;100049.91;;;22.75;36.59
67818;BME280;54614;47.576;7.524;2024-01-30T08:37:29;100053.44;;;22.75;36.85
67818;BME280;54614;47.576;7.524;2024-01-30T08:39:55;100045.41;;;22.75;36.49
67818;BME280;54614;47.576;7.524;2024-01-30T08:42:21;100047.41;;;22.73;36.62
67818;BME280;54614;47.576;7.524;2024-01-30T08:44:51;100044.06;;;22.71;36.82
67818;BME280;54614;47.576;7.524;2024-01-30T08:47:18;100053.78;;;22.72;36.42
67818;BME280;54614;47.576;7.524;2024-01-30T08:49:44;100037.50;;;22.66;36.70
67818;BME280;54614;47.576;7.524;2024-01-30T08:52:11;100062.31;;;22.68;36.51
67818;BME280;54614;47.576;7.524;2024-01-30T08:54:36;100046.38;;;22.66;36.64
67818;BME280;54614;47.576;7.524;2024-01-30T08:57:02;100051.91;;;22.65;36.72
67818;BME280;54614;47.576;7.524;2024-01-30T08:59:29;100048.06;;;22.67;36.89
67818;BME280;54614;47.576;7.524;2024-01-30T09:01:55;100049.56;;;22.62;36.66
67818;BME280;54614;47.576;7.524;2024-01-30T09:04:23;100051.56;;;22.60;36.67
67818;BME280;54614;47.576;7.524;2024-01-30T09:06:49;100053.75;;;22.64;36.72
67818;BME280;54614;47.576;7.524;2024-01-30T09:09:16;100055.28;;;22.67;36.37
67818;BME280;54614;47.576;7.524;2024-01-30T09:11:41;100047.38;;;22.65;36.65
67818;BME280;54614;47.576;7.524;2024-01-30T09:14:07;100053.06;;;22.62;36.21
67818;BME280;54614;47.576;7.524;2024-01-30T09:16:33;100061.44;;;22.59;36.50
67818;BME280;54614;47.576;7.524;2024-01-30T09:18:59;100054.41;;;22.58;36.54
67818;BME280;54614;47.576;7.524;2024-01-30T09:21:25;100068.50;;;22.60;36.21
67818;BME280;54614;47.576;7.524;2024-01-30T09:23:54;100064.63;;;22.55;36.19
67818;BME280;54614;47.576;7.524;2024-01-30T09:26:20;100053.56;;;22.58;36.40
67818;BME280;54614;47.576;7.524;2024-01-30T09:28:46;100071.81;;;22.54;36.35
67818;BME280;54614;47.576;7.524;2024-01-30T09:31:12;100054.91;;;22.62;36.16
67818;BME280;54614;47.576;7.524;2024-01-30T09:33:38;100075.88;;;22.58;36.51
67818;BME280;54614;47.576;7.524;2024-01-30T09:36:06;100067.81;;;22.58;36.50
67818;BME280;54614;47.576;7.524;2024-01-30T09:38:32;100073.03;;;22.60;36.44
67818;BME280;54614;47.576;7.524;2024-01-30T09:41:03;100081.91;;;22.60;36.56
67818;BME280;54614;47.576;7.524;2024-01-30T09:43:33;100065.81;;;22.60;36.15
67818;BME280;54614;47.576;7.524;2024-01-30T09:46:03;100082.22;;;22.57;36.39
67818;BME280;54614;47.576;7.524;2024-01-30T09:48:32;100074.69;;;22.61;35.93
67818;BME280;54614;47.576;7.524;2024-01-30T09:50:58;100084.25;;;22.63;36.26
67818;BME280;54614;47.576;7.524;2024-01-30T09:53:24;100083.75;;;22.60;36.31
67818;BME280;54614;47.576;7.524;2024-01-30T09:55:50;100078.88;;;22.55;36.34
67818;BME280;54614;47.576;7.524;2024-01-30T09:58:17;100092.94;;;22.57;36.08
67818;BME280;54614;47.576;7.524;2024-01-30T10:00:43;100076.88;;;22.57;36.39
67818;BME280;54614;47.576;7.524;2024-01-30T10:03:09;100077.38;;;22.61;36.17
67818;BME280;54614;47.576;7.524;2024-01-30T10:05:36;100090.59;;;22.54;36.16
67818;BME280;54614;47.576;7.524;2024-01-30T10:08:08;100078.38;;;22.60;35.88
67818;BME280;54614;47.576;7.524;2024-01-30T10:10:34;100091.94;;;22.58;35.87
67818;BME280;54614;47.576;7.524;2024-01-30T10:13:01;100089.78;;;22.62;35.81
67818;BME280;54614;47.576;7.524;2024-01-30T10:15:28;100085.22;;;22.54;36.08
67818;BME280;54614;47.576;7.524;2024-01-30T10:17:55;100082.03;;;22.50;36.23
67818;BME280;54614;47.576;7.524;2024-01-30T10:20:20;100087.41;;;22.50;36.03
67818;BME280;54614;47.576;7.524;2024-01-30T10:22:49;100081.56;;;22.55;35.83
67818;BME280;54614;47.576;7.524;2024-01-30T10:25:15;100074.88;;;22.59;35.61
67818;BME280;54614;47.576;7.524;2024-01-30T10:27:41;100076.53;;;22.60;35.97
67818;BME280;54614;47.576;7.524;2024-01-30T10:30:08;100078.72;;;22.57;35.88
67818;BME280;54614;47.576;7.524;2024-01-30T10:32:34;100081.75;;;22.62;35.94
67818;BME280;54614;47.576;7.524;2024-01-30T10:35:00;100075.34;;;22.55;36.27
67818;BME280;54614;47.576;7.524;2024-01-30T10:37:26;100081.72;;;22.54;36.20
67818;BME280;54614;47.576;7.524;2024-01-30T10:39:53;100076.50;;;22.52;36.43
67818;BME280;54614;47.576;7.524;2024-01-30T10:42:26;100080.03;;;22.52;36.35
67818;BME280;54614;47.576;7.524;2024-01-30T10:45:07;100076.19;;;22.55;36.65
67818;BME280;54614;47.576;7.524;2024-01-30T10:47:49;100086.91;;;22.55;36.62
67818;BME280;54614;47.576;7.524;2024-01-30T10:50:16;100081.22;;;22.58;36.37
67818;BME280;54614;47.576;7.524;2024-01-30T10:52:42;100081.91;;;22.60;36.17
67818;BME280;54614;47.576;7.524;2024-01-30T10:55:10;100078.06;;;22.63;36.39
67818;BME280;54614;47.576;7.524;2024-01-30T10:57:37;100079.94;;;22.70;36.06
67818;BME280;54614;47.576;7.524;2024-01-30T11:00:12;100071.38;;;22.67;36.56
67818;BME280;54614;47.576;7.524;2024-01-30T11:02:46;100069.19;;;22.70;36.38
67818;BME280;54614;47.576;7.524;2024-01-30T11:05:13;100065.19;;;22.74;36.29
67818;BME280;54614;47.576;7.524;2024-01-30T11:07:41;100059.81;;;22.74;36.58
67818;BME280;54614;47.576;7.524;2024-01-30T11:10:07;100059.81;;;22.74;36.42
67818;BME280;54614;47.576;7.524;2024-01-30T11:12:40;100055.63;;;22.72;36.37
67818;BME280;54614;47.576;7.524;2024-01-30T11:15:12;100064.50;;;22.72;nan
67818;BME280;54614;47.576;7.524;2024-01-30T11:20:43;100056.63;;;22.71;36.58
67818;BME280;54614;47.576;7.524;2024-01-30T11:23:12;100050.25;;;22.72;36.44
67818;BME280;54614;47.576;7.524;2024-01-30T11:25:38;100048.91;;;22.68;36.41
67818;BME280;54614;47.576;7.524;2024-01-30T11:28:04;100052.59;;;22.67;36.55
67818;BME280;54614;47.576;7.524;2024-01-30T11:30:31;100048.75;;;22.69;36.48
67818;BME280;54614;47.576;7.524;2024-01-30T11:33:14;100047.72;;;22.70;36.49
67818;BME280;54614;47.576;7.524;2024-01-30T11:35:40;100046.91;;;22.70;36.67
67818;BME280;54614;47.576;7.524;2024-01-30T11:38:10;100043.22;;;22.71;36.54
67818;BME280;54614;47.576;7.524;2024-01-30T11:40:38;100042.88;;;22.74;36.80
67818;BME280;54614;47.576;7.524;2024-01-30T11:43:06;100048.09;;;22.75;36.62
67818;BME280;54614;47.576;7.524;2024-01-30T11:45:34;100040.72;;;22.77;36.72
67818;BME280;54614;47.576;7.524;2024-01-30T11:48:00;100039.19;;;22.75;36.72
67818;BME280;54614;47.576;7.524;2024-01-30T11:50:33;100031.47;;;22.72;36.54
67818;BME280;54614;47.576;7.524;2024-01-30T11:53:00;100032.66;;;22.77;36.69
67818;BME280;54614;47.576;7.524;2024-01-30T11:55:26;100030.81;;;22.70;36.89
67818;BME280;54614;47.576;7.524;2024-01-30T11:57:59;100026.28;;;22.70;36.99
67818;BME280;54614;47.576;7.524;2024-01-30T12:00:25;100023.59;;;22.70;36.74
67818;BME280;54614;47.576;7.524;2024-01-30T12:02:54;100019.22;;;22.69;37.00
67818;BME280;54614;47.576;7.524;2024-01-30T12:05:25;100021.06;;;22.69;37.08
67818;BME280;54614;47.576;7.524;2024-01-30T12:07:51;100018.22;;;22.70;36.84
67818;BME280;54614;47.576;7.524;2024-01-30T12:10:17;100014.72;;;22.70;36.87
67818;BME280;54614;47.576;7.524;2024-01-30T12:12:48;100011.03;;;22.71;36.70
67818;BME280;54614;47.576;7.524;2024-01-30T12:15:15;100014.88;;;22.68;37.08
67818;BME280;54614;47.576;7.524;2024-01-30T12:17:41;100017.56;;;22.68;36.61
67818;BME280;54614;47.576;7.524;2024-01-30T12:22:53;100003.31;;;22.68;37.05
67818;BME280;54614;47.576;7.524;2024-01-30T12:25:20;100003.47;;;22.66;36.87
67818;BME280;54614;47.576;7.524;2024-01-30T12:27:50;100005.63;;;22.63;37.05
67818;BME280;54614;47.576;7.524;2024-01-30T12:30:17;99996.75;;;22.62;37.23
67818;BME280;54614;47.576;7.524;2024-01-30T12:32:46;99999.44;;;22.62;37.34
67818;BME280;54614;47.576;7.524;2024-01-30T12:35:15;100001.44;;;22.60;37.28
67818;BME280;54614;47.576;7.524;2024-01-30T12:37:45;99999.59;;;22.61;37.16
67818;BME280;54614;47.576;7.524;2024-01-30T12:40:13;99995.41;;;22.66;37.20
67818;BME280;54614;47.576;7.524;2024-01-30T12:42:41;99997.25;;;22.66;36.74
67818;BME280;54614;47.576;7.524;2024-01-30T12:45:08;99990.22;;;22.65;36.97
67818;BME280;54614;47.576;7.524;2024-01-30T12:47:35;99991.38;;;22.62;37.07
67818;BME280;54614;47.576;7.524;2024-01-30T12:50:00;99988.22;;;22.67;36.86
67818;BME280;54614;47.576;7.524;2024-01-30T12:52:27;99989.38;;;22.64;37.15
67818;BME280;54614;47.576;7.524;2024-01-30T12:54:53;99994.06;;;22.62;37.27
67818;BME280;54614;47.576;7.524;2024-01-30T12:57:19;99989.88;;;22.60;37.50
67818;BME280;54614;47.576;7.524;2024-01-30T12:59:46;99993.72;;;22.57;37.25